createdAt,value
2018-11-03T00:02:01.031Z,9.18
2018-11-03T00:04:29.861Z,9.33
2018-11-03T00:06:58.691Z,8.93
2018-11-03T00:09:27.517Z,8.23
2018-11-03T00:11:57.090Z,8.43
2018-11-03T00:14:25.920Z,8.30
2018-11-03T00:16:54.759Z,8.27
2018-11-03T00:19:23.584Z,8.50
2018-11-03T00:21:53.151Z,8.53
2018-11-03T00:24:22.005Z,8.80
2018-11-03T00:26:50.835Z,9.43
2018-11-03T00:29:19.653Z,8.10
2018-11-03T00:31:49.230Z,8.43
2018-11-03T00:34:18.064Z,9.45
2018-11-03T00:36:46.895Z,9.50
2018-11-03T00:39:15.726Z,9.67
2018-11-03T00:41:44.543Z,8.60
2018-11-03T00:44:13.373Z,8.77
2018-11-03T00:46:42.227Z,8.53
2018-11-03T00:49:11.047Z,8.50
2018-11-03T00:51:39.884Z,9.33
2018-11-03T00:54:08.713Z,9.43
2018-11-03T00:56:37.542Z,8.83
2018-11-03T00:59:06.394Z,9.23
2018-11-03T01:01:35.196Z,8.80
2018-11-03T01:04:04.027Z,8.57
2018-11-03T01:06:33.594Z,8.70
2018-11-03T01:09:02.451Z,9.07
2018-11-03T01:11:31.285Z,9.30
2018-11-03T01:14:00.086Z,9.37
2018-11-03T01:16:29.659Z,9.53
2018-11-03T01:18:58.517Z,9.77
2018-11-03T01:21:27.330Z,8.57
2018-11-03T01:23:56.159Z,9.63
2018-11-03T01:26:25.737Z,9.20
2018-11-03T01:28:54.572Z,8.13
2018-11-03T01:31:24.133Z,9.50
2018-11-03T01:33:52.968Z,9.63
2018-11-03T01:36:21.814Z,10.10
2018-11-03T01:38:50.647Z,9.97
2018-11-03T01:41:19.473Z,10.00
2018-11-03T01:43:48.302Z,9.97
2018-11-03T01:46:17.145Z,10.17
2018-11-03T01:48:45.994Z,10.53
2018-11-03T01:51:14.862Z,10.13
2018-11-03T01:53:43.696Z,10.33
2018-11-03T01:56:12.540Z,10.50
2018-11-03T01:58:41.376Z,10.32
2018-11-03T02:01:10.208Z,9.03
2018-11-03T02:03:39.047Z,9.53
2018-11-03T02:06:07.878Z,10.98
2018-11-03T02:08:36.703Z,10.43
2018-11-03T02:11:05.534Z,10.17
2018-11-03T02:13:34.384Z,10.27
2018-11-03T02:16:03.953Z,10.17
2018-11-03T02:18:32.783Z,10.25
2018-11-03T02:21:02.350Z,10.50
2018-11-03T02:23:31.194Z,9.90
2018-11-03T02:26:00.038Z,9.90
2018-11-03T02:28:28.865Z,9.85
2018-11-03T02:30:57.702Z,10.07
2018-11-03T02:33:27.280Z,9.30
2018-11-03T02:35:56.111Z,9.40
2018-11-03T02:38:24.946Z,9.50
2018-11-03T02:40:53.772Z,8.67
2018-11-03T02:43:22.602Z,9.23
2018-11-03T02:45:51.443Z,8.60
2018-11-03T02:48:20.282Z,8.80
2018-11-03T02:50:49.113Z,8.10
2018-11-03T02:53:17.945Z,8.20
2018-11-03T02:55:47.515Z,7.80
2018-11-03T02:58:16.339Z,7.13
2018-11-03T03:00:45.910Z,6.53
2018-11-03T03:03:14.735Z,6.40
2018-11-03T03:05:43.570Z,5.80
2018-11-03T03:08:12.400Z,6.33
2018-11-03T03:10:41.987Z,5.07
2018-11-03T03:13:10.855Z,5.70
2018-11-03T03:15:39.652Z,5.57
2018-11-03T03:18:08.477Z,5.07
2018-11-03T03:20:38.043Z,5.43
2018-11-03T03:23:06.865Z,5.87
2018-11-03T03:25:35.703Z,5.57
2018-11-03T03:28:04.522Z,6.03
2018-11-03T03:30:33.353Z,6.20
2018-11-03T03:33:02.187Z,6.17
2018-11-03T03:35:31.014Z,6.00
2018-11-03T03:38:00.587Z,6.20
2018-11-03T03:40:29.426Z,6.17
2018-11-03T03:42:58.261Z,7.03
2018-11-03T03:45:27.153Z,7.47
2018-11-03T03:47:55.928Z,6.23
2018-11-03T03:50:24.755Z,7.37
2018-11-03T03:52:53.598Z,7.90
2018-11-03T03:55:22.432Z,7.10
2018-11-03T03:57:51.251Z,7.67
2018-11-03T04:00:20.075Z,8.13
2018-11-03T04:02:48.911Z,8.17
2018-11-03T04:05:18.483Z,8.00
2018-11-03T04:07:47.311Z,8.77
2018-11-03T04:10:16.141Z,7.80
2018-11-03T04:12:44.971Z,8.23
2018-11-03T04:15:13.808Z,7.90
2018-11-03T04:17:42.642Z,8.63
2018-11-03T04:20:11.470Z,8.63
2018-11-03T04:22:41.126Z,9.23
2018-11-03T04:25:09.920Z,8.30
2018-11-03T04:27:38.749Z,8.77
2018-11-03T04:30:07.584Z,8.67
2018-11-03T04:32:36.415Z,9.23
2018-11-03T04:35:05.247Z,8.90
2018-11-03T04:37:34.094Z,9.77
2018-11-03T04:40:02.920Z,9.50
2018-11-03T04:42:31.748Z,9.03
2018-11-03T04:45:00.566Z,9.27
2018-11-03T04:47:29.395Z,8.77
2018-11-03T04:49:58.223Z,9.70
2018-11-03T04:52:27.051Z,9.27
2018-11-03T04:54:55.950Z,9.77
2018-11-03T04:57:24.721Z,9.70
2018-11-03T04:59:53.556Z,10.20
2018-11-03T05:02:22.390Z,10.53
2018-11-03T05:04:51.231Z,10.60
2018-11-03T05:07:20.055Z,10.20
2018-11-03T05:09:49.701Z,10.70
2018-11-03T05:12:19.260Z,12.02
2018-11-03T05:14:48.107Z,11.30
2018-11-03T05:17:16.942Z,11.60
2018-11-03T05:19:45.777Z,12.13
2018-11-03T05:22:14.653Z,12.03
2018-11-03T05:24:44.282Z,12.90
2018-11-03T05:27:13.788Z,11.83
2018-11-03T05:29:42.621Z,11.83
2018-11-03T05:32:11.471Z,11.40
2018-11-03T05:34:40.315Z,11.67
2018-11-03T05:37:09.145Z,12.20
2018-11-03T05:39:37.971Z,12.83
2018-11-03T05:42:06.798Z,12.53
2018-11-03T05:44:35.641Z,13.27
2018-11-03T05:47:04.485Z,12.03
2018-11-03T05:49:33.326Z,11.83
2018-11-03T05:52:02.172Z,12.87
2018-11-03T05:54:31.017Z,14.70
2018-11-03T05:57:00.584Z,14.00
2018-11-03T05:59:29.416Z,13.43
2018-11-03T06:01:58.247Z,13.00
2018-11-03T06:04:27.079Z,12.70
2018-11-03T06:06:55.940Z,13.37
2018-11-03T06:09:24.770Z,14.80
2018-11-03T06:11:54.348Z,13.20
2018-11-03T06:14:23.188Z,13.13
2018-11-03T06:16:52.024Z,14.43
2018-11-03T06:19:20.851Z,14.77
2018-11-03T06:21:49.696Z,13.57
2018-11-03T06:24:18.530Z,14.00
2018-11-03T06:26:47.363Z,13.73
2018-11-03T06:29:16.201Z,14.77
2018-11-03T06:31:45.045Z,15.30
2018-11-03T06:34:13.876Z,14.07
2018-11-03T06:36:43.459Z,14.47
2018-11-03T06:39:12.294Z,15.60
2018-11-03T06:41:41.126Z,14.20
2018-11-03T06:44:09.974Z,16.37
2018-11-03T06:46:38.920Z,17.73
2018-11-03T06:49:07.651Z,17.00
2018-11-03T06:51:36.492Z,15.37
2018-11-03T06:54:05.332Z,16.30
2018-11-03T06:56:34.174Z,17.63
2018-11-03T06:59:03.019Z,17.02
2018-11-03T07:01:31.865Z,17.00
2018-11-03T07:04:00.715Z,16.90
2018-11-03T07:06:29.539Z,17.77
2018-11-03T07:08:59.109Z,17.17
2018-11-03T07:11:27.990Z,17.58
2018-11-03T07:13:56.787Z,16.37
2018-11-03T07:16:25.616Z,16.60
2018-11-03T07:18:54.470Z,16.40
2018-11-03T07:21:23.307Z,16.40
2018-11-03T07:23:52.885Z,15.37
2018-11-03T07:26:21.734Z,16.47
2018-11-03T07:28:50.558Z,16.00
2018-11-03T07:31:19.396Z,15.57
2018-11-03T07:33:48.239Z,16.63
2018-11-03T07:36:17.075Z,16.00
2018-11-03T07:38:45.931Z,16.50
2018-11-03T07:41:15.511Z,16.87
2018-11-03T07:43:44.330Z,16.60
2018-11-03T07:46:13.918Z,15.07
2018-11-03T07:48:42.888Z,14.57
2018-11-03T07:51:11.597Z,15.83
2018-11-03T07:53:40.422Z,14.53
2018-11-03T07:56:09.255Z,14.30
2018-11-03T07:58:38.093Z,14.80
2018-11-03T08:01:06.928Z,13.60
2018-11-03T08:03:35.772Z,14.33
2018-11-03T08:06:04.612Z,13.47
2018-11-03T08:08:33.460Z,14.17
2018-11-03T08:11:02.275Z,13.67
2018-11-03T08:13:31.148Z,14.07
2018-11-03T08:16:00.018Z,13.53
2018-11-03T08:18:28.857Z,14.38
2018-11-03T08:20:57.684Z,13.47
2018-11-03T08:23:26.514Z,13.40
2018-11-03T08:25:55.338Z,14.07
2018-11-03T08:28:24.177Z,12.87
2018-11-03T08:30:53.012Z,13.93
2018-11-03T08:33:21.838Z,13.37
2018-11-03T08:35:50.666Z,12.83
2018-11-03T08:38:19.494Z,13.83
2018-11-03T08:40:49.066Z,13.50
2018-11-03T08:43:17.943Z,13.93
2018-11-03T08:45:46.739Z,13.83
2018-11-03T08:48:15.691Z,13.93
2018-11-03T08:50:45.172Z,13.70
2018-11-03T08:53:14.023Z,13.43
2018-11-03T08:55:42.869Z,13.80
2018-11-03T08:58:11.700Z,13.17
2018-11-03T09:00:40.530Z,12.80
2018-11-03T09:03:09.378Z,14.33
2018-11-03T09:05:38.212Z,13.40
2018-11-03T09:08:07.796Z,13.93
2018-11-03T09:10:36.634Z,14.07
2018-11-03T09:13:05.491Z,13.60
2018-11-03T09:15:35.067Z,14.30
2018-11-03T09:18:03.897Z,14.40
2018-11-03T09:20:32.731Z,13.80
2018-11-03T09:23:01.571Z,14.40
2018-11-03T09:25:31.155Z,13.60
2018-11-03T09:28:00.794Z,13.47
2018-11-03T09:30:30.372Z,13.40
2018-11-03T09:32:59.213Z,15.25
2018-11-03T09:35:28.058Z,14.95
2018-11-03T09:37:56.905Z,13.73
2018-11-03T09:40:25.743Z,15.57
2018-11-03T09:42:55.330Z,14.37
2018-11-03T09:45:24.212Z,13.17
2018-11-03T09:47:53.028Z,12.90
2018-11-03T09:50:22.655Z,14.73
2018-11-03T09:52:51.568Z,15.23
2018-11-03T09:55:20.325Z,15.13
2018-11-03T09:57:49.898Z,14.47
2018-11-03T10:00:18.736Z,14.68
2018-11-03T10:02:47.916Z,12.47
2018-11-03T10:05:17.505Z,12.83
2018-11-03T10:07:46.367Z,13.10
2018-11-03T10:10:15.181Z,11.97
2018-11-03T10:12:44.030Z,11.60
2018-11-03T10:15:12.871Z,14.17
2018-11-03T10:17:41.738Z,14.40
2018-11-03T10:20:10.673Z,14.40
2018-11-03T10:22:39.621Z,13.80
2018-11-03T10:25:08.469Z,12.47
2018-11-03T10:27:38.028Z,12.17
2018-11-03T10:30:06.872Z,12.27
2018-11-03T10:32:35.710Z,12.63
2018-11-03T10:35:04.555Z,11.53
2018-11-03T10:37:33.409Z,11.17
2018-11-03T10:40:02.259Z,10.87
2018-11-03T10:42:31.097Z,11.77
2018-11-03T10:44:59.954Z,12.17
2018-11-03T10:47:28.806Z,11.97
2018-11-03T10:49:57.645Z,15.10
2018-11-03T10:52:26.489Z,15.60
2018-11-03T10:54:55.339Z,13.50
2018-11-03T10:57:24.186Z,12.53
2018-11-03T10:59:53.022Z,11.93
2018-11-03T11:02:23.743Z,13.05
2018-11-03T11:04:58.051Z,12.30
2018-11-03T11:07:27.679Z,12.57
2018-11-03T11:09:57.233Z,12.13
2018-11-03T11:12:26.072Z,10.90
2018-11-03T11:14:54.915Z,11.20
2018-11-03T11:17:23.778Z,15.80
2018-11-03T11:19:52.622Z,12.20
2018-11-03T11:22:21.453Z,11.27
2018-11-03T11:24:50.345Z,11.07
2018-11-03T11:27:19.929Z,11.90
2018-11-03T11:29:48.790Z,11.87
2018-11-03T11:32:18.368Z,11.43
2018-11-03T11:34:47.223Z,12.47
2018-11-03T11:37:16.068Z,12.93
2018-11-03T11:39:44.907Z,11.63
2018-11-03T11:42:13.765Z,12.17
2018-11-03T11:44:42.623Z,12.52
2018-11-03T11:47:11.454Z,11.90
2018-11-03T11:49:40.300Z,12.40
2018-11-03T11:52:09.134Z,12.23
2018-11-03T11:54:37.990Z,12.87
2018-11-03T11:57:06.906Z,12.37
2018-11-03T11:59:35.669Z,12.03
2018-11-03T12:02:04.599Z,11.67
2018-11-03T12:04:33.397Z,13.65
2018-11-03T12:07:02.242Z,12.63
2018-11-03T12:09:31.828Z,12.07
2018-11-03T12:12:00.665Z,12.68
2018-11-03T12:14:29.505Z,12.57
2018-11-03T12:16:58.345Z,11.73
2018-11-03T12:19:27.180Z,12.00
2018-11-03T12:21:56.010Z,11.67
2018-11-03T12:24:24.850Z,11.33
2018-11-03T12:26:53.727Z,11.87
2018-11-03T12:29:22.525Z,11.40
2018-11-03T12:31:51.372Z,10.40
2018-11-03T12:34:20.258Z,9.77
2018-11-03T12:36:49.089Z,10.63
2018-11-03T12:39:17.939Z,10.93
2018-11-03T12:41:46.785Z,11.10
2018-11-03T12:44:15.628Z,11.20
2018-11-03T12:46:44.496Z,11.30
2018-11-03T12:49:14.074Z,11.20
2018-11-03T12:51:43.560Z,11.20
2018-11-03T12:54:12.360Z,10.67
2018-11-03T12:56:41.211Z,10.00
2018-11-03T12:59:10.048Z,10.50
2018-11-03T13:01:38.884Z,9.63
2018-11-03T13:04:07.717Z,10.10
2018-11-03T13:06:36.596Z,9.53
2018-11-03T13:09:05.415Z,10.65
2018-11-03T13:11:34.265Z,9.50
2018-11-03T13:14:03.096Z,10.27
2018-11-03T13:16:32.702Z,9.60
2018-11-03T13:19:02.281Z,9.20
2018-11-03T13:21:31.127Z,9.98
2018-11-03T13:23:59.971Z,9.13
2018-11-03T13:26:28.820Z,9.63
2018-11-03T13:28:57.659Z,9.43
2018-11-03T13:31:27.255Z,9.10
2018-11-03T13:33:56.100Z,9.73
2018-11-03T13:36:24.989Z,9.48
2018-11-03T13:38:53.779Z,8.43
2018-11-03T13:41:22.615Z,8.73
2018-11-03T13:43:51.467Z,8.87
2018-11-03T13:46:20.319Z,9.35
2018-11-03T13:48:49.159Z,9.60
2018-11-03T13:51:17.997Z,8.83
2018-11-03T13:53:47.570Z,8.67
2018-11-03T13:56:16.993Z,8.30
2018-11-03T13:58:46.573Z,8.80
2018-11-03T14:01:15.423Z,8.63
2018-11-03T14:03:44.260Z,8.50
2018-11-03T14:06:13.117Z,8.63
2018-11-03T14:08:41.971Z,9.55
2018-11-03T14:11:10.858Z,9.73
2018-11-03T14:13:39.643Z,8.43
2018-11-03T14:16:08.497Z,9.03
2018-11-03T14:18:37.335Z,9.30
2018-11-03T14:21:06.162Z,8.70
2018-11-03T14:23:35.081Z,8.90
2018-11-03T14:26:03.840Z,9.57
2018-11-03T14:28:32.678Z,8.97
2018-11-03T14:31:01.529Z,8.40
2018-11-03T14:35:59.246Z,9.37
2018-11-03T14:38:28.813Z,9.10
2018-11-03T14:40:57.649Z,9.38
2018-11-03T14:43:26.488Z,8.93
2018-11-03T14:45:55.430Z,8.47
2018-11-03T14:48:24.223Z,8.57
2018-11-03T14:50:53.087Z,8.73
2018-11-03T14:53:21.920Z,8.60
2018-11-03T14:55:50.765Z,8.13
2018-11-03T14:58:19.623Z,8.80
2018-11-03T15:00:48.466Z,9.13
2018-11-03T15:03:17.309Z,8.13
2018-11-03T15:05:46.178Z,8.50
2018-11-03T15:08:15.015Z,8.20
2018-11-03T15:10:44.587Z,7.97
2018-11-03T15:13:13.425Z,7.77
2018-11-03T15:15:42.280Z,7.73
2018-11-03T15:18:11.857Z,7.00
2018-11-03T15:20:40.691Z,7.40
2018-11-03T15:23:10.266Z,7.00
2018-11-03T15:25:39.110Z,6.97
2018-11-03T15:28:07.949Z,5.93
2018-11-03T15:30:36.767Z,5.67
2018-11-03T15:33:06.344Z,5.00
2018-11-03T15:35:35.171Z,5.10
2018-11-03T15:38:03.997Z,5.13
2018-11-03T15:40:32.841Z,5.50
2018-11-03T15:43:01.678Z,5.47
2018-11-03T15:45:30.510Z,5.57
2018-11-03T15:48:00.108Z,5.67
2018-11-03T15:50:28.947Z,5.70
2018-11-03T15:52:57.788Z,5.18
2018-11-03T15:55:26.655Z,5.13
2018-11-03T15:57:55.457Z,5.03
2018-11-03T16:00:24.305Z,5.50
2018-11-03T16:02:53.143Z,6.25
2018-11-03T16:05:22.000Z,5.50
2018-11-03T16:07:50.842Z,6.00
2018-11-03T16:10:19.666Z,5.43
2018-11-03T16:12:48.646Z,5.27
2018-11-03T16:15:17.326Z,5.77
2018-11-03T16:17:46.174Z,6.47
2018-11-03T16:20:15.017Z,6.03
2018-11-03T16:22:43.930Z,6.17
2018-11-03T16:25:12.761Z,5.97
2018-11-03T16:27:41.673Z,6.23
2018-11-03T16:30:10.523Z,6.33
2018-11-03T16:32:39.529Z,6.10
2018-11-03T16:35:08.941Z,6.57
2018-11-03T16:37:39.829Z,6.30
2018-11-03T16:40:08.671Z,6.37
2018-11-03T16:42:37.507Z,5.93
2018-11-03T16:45:06.339Z,6.50
2018-11-03T16:47:35.190Z,6.67
2018-11-03T16:50:04.019Z,6.83
2018-11-03T16:52:32.896Z,6.07
2018-11-03T16:55:01.688Z,6.23
2018-11-03T16:57:30.516Z,6.20
2018-11-03T16:59:59.360Z,6.33
2018-11-03T17:02:28.236Z,7.27
2018-11-03T17:04:57.079Z,8.20
2018-11-03T17:07:25.912Z,7.07
2018-11-03T17:09:54.743Z,6.97
2018-11-03T17:12:23.642Z,6.93
2018-11-03T17:14:53.227Z,6.70
2018-11-03T17:17:22.063Z,6.53
2018-11-03T17:19:50.953Z,6.33
2018-11-03T17:22:19.726Z,6.63
2018-11-03T17:24:48.552Z,5.93
2018-11-03T17:27:17.403Z,6.03
2018-11-03T17:29:46.226Z,6.62
2018-11-03T17:32:15.062Z,6.13
2018-11-03T17:34:43.889Z,5.73
2018-11-03T17:37:12.778Z,5.60
2018-11-03T17:39:41.633Z,6.27
2018-11-03T17:42:10.476Z,6.80
2018-11-03T17:44:39.345Z,6.17
2018-11-03T17:47:08.181Z,5.73
2018-11-03T17:49:37.021Z,5.63
2018-11-03T17:52:05.866Z,5.90
2018-11-03T17:54:34.773Z,6.20
2018-11-03T17:57:04.319Z,6.87
2018-11-03T17:59:33.160Z,5.73
2018-11-03T18:02:02.002Z,6.10
2018-11-03T18:04:30.843Z,5.90
2018-11-03T18:06:59.676Z,5.97
2018-11-03T18:09:28.507Z,6.73
2018-11-03T18:11:57.345Z,6.30
2018-11-03T18:14:26.185Z,6.23
2018-11-03T18:16:55.040Z,7.20
2018-11-03T18:19:23.878Z,6.33
2018-11-03T18:21:52.717Z,6.33
2018-11-03T18:24:22.141Z,8.10
2018-11-03T18:26:50.972Z,9.25
2018-11-03T18:29:19.815Z,9.00
2018-11-03T18:31:49.394Z,8.68
2018-11-03T18:34:18.324Z,16.37
2018-11-03T18:36:47.077Z,22.03
2018-11-03T18:39:15.925Z,23.20
2018-11-03T18:41:44.810Z,18.63
2018-11-03T18:44:13.619Z,20.47
2018-11-03T18:46:42.510Z,16.97
2018-11-03T18:49:12.059Z,17.40
2018-11-03T18:51:41.684Z,34.37
2018-11-03T18:54:10.496Z,28.85
2018-11-03T18:56:39.343Z,20.77
2018-11-03T18:59:08.194Z,19.70
2018-11-03T19:01:37.109Z,17.40
2018-11-03T19:04:05.922Z,14.93
2018-11-03T19:06:34.776Z,17.80
2018-11-03T19:09:03.621Z,20.77
2018-11-03T19:11:32.457Z,20.30
2018-11-03T19:14:01.299Z,17.70
2018-11-03T19:16:30.153Z,20.50
2018-11-03T19:18:59.299Z,13.70
2018-11-03T19:21:29.127Z,13.47
2018-11-03T19:23:58.182Z,15.70
2018-11-03T19:26:27.170Z,14.53
2018-11-03T19:28:56.207Z,15.03
2018-11-03T19:31:25.296Z,15.50
2018-11-03T19:33:54.356Z,17.37
2018-11-03T19:36:24.113Z,23.00
2018-11-03T19:38:53.199Z,25.48
2018-11-03T19:41:22.308Z,21.07
2018-11-03T19:43:51.389Z,21.33
2018-11-03T19:46:20.402Z,25.30
2018-11-03T19:48:49.475Z,23.53
2018-11-03T19:51:18.516Z,30.47
2018-11-03T19:53:47.560Z,32.80
2018-11-03T19:56:16.743Z,27.97
2018-11-03T19:58:45.484Z,27.03
2018-11-03T20:01:14.330Z,30.40
2018-11-03T20:03:43.177Z,27.63
2018-11-03T20:06:12.773Z,15.57
2018-11-03T20:08:41.614Z,12.67
2018-11-03T20:11:10.480Z,11.17
2018-11-03T20:13:39.337Z,10.70
2018-11-03T20:16:08.199Z,10.73
2018-11-03T20:18:37.046Z,11.50
2018-11-03T20:21:05.879Z,11.07
2018-11-03T20:23:34.721Z,11.00
2018-11-03T20:26:03.599Z,10.93
2018-11-03T20:28:32.426Z,11.53
2018-11-03T20:31:01.273Z,12.63
2018-11-03T20:33:30.854Z,11.10
2018-11-03T20:35:59.718Z,11.27
2018-11-03T20:38:28.565Z,13.13
2018-11-03T20:40:57.413Z,12.13
2018-11-03T20:43:26.280Z,11.30
2018-11-03T20:45:55.131Z,12.90
2018-11-03T20:48:24.715Z,12.43
2018-11-03T20:50:54.301Z,15.93
2018-11-03T20:53:23.133Z,17.10
2018-11-03T20:55:52.721Z,13.13
2018-11-03T20:58:21.565Z,12.83
2018-11-03T21:00:50.404Z,13.63
2018-11-03T21:03:19.256Z,13.50
2018-11-03T21:05:48.105Z,13.83
2018-11-03T21:08:17.014Z,14.97
2018-11-03T21:10:45.805Z,13.43
2018-11-03T21:13:14.655Z,14.07
2018-11-03T21:15:44.249Z,13.77
2018-11-03T21:18:13.829Z,15.60
2018-11-03T21:20:42.698Z,15.90
2018-11-03T21:23:12.316Z,15.80
2018-11-03T21:25:41.089Z,14.73
2018-11-03T21:28:09.926Z,15.20
2018-11-03T21:30:38.783Z,19.70
2018-11-03T21:33:07.793Z,19.60
2018-11-03T21:35:37.205Z,16.07
2018-11-03T21:38:06.106Z,15.67
2018-11-03T21:40:35.632Z,14.77
2018-11-03T21:43:04.483Z,13.23
2018-11-03T21:45:33.325Z,14.17
2018-11-03T21:48:02.191Z,13.57
2018-11-03T21:50:31.034Z,13.67
2018-11-03T21:52:59.884Z,27.90
2018-11-03T21:55:28.737Z,19.00
2018-11-03T21:57:57.579Z,14.57
2018-11-03T22:00:26.423Z,13.90
2018-11-03T22:02:55.279Z,13.90
2018-11-03T22:05:24.121Z,13.00
2018-11-03T22:07:52.962Z,13.60
2018-11-03T22:10:21.817Z,13.93
2018-11-03T22:12:50.649Z,13.40
2018-11-03T22:15:19.504Z,13.70
2018-11-03T22:17:48.360Z,14.23
2018-11-03T22:20:17.187Z,13.13
2018-11-03T22:22:46.028Z,14.10
2018-11-03T22:25:14.890Z,13.50
2018-11-03T22:27:43.771Z,14.50
2018-11-03T22:30:12.577Z,13.63
2018-11-03T22:32:41.432Z,13.63
2018-11-03T22:35:10.287Z,13.87
2018-11-03T22:37:39.871Z,13.87
2018-11-03T22:40:08.717Z,13.67
2018-11-03T22:42:37.547Z,14.27
2018-11-03T22:45:06.392Z,14.20
2018-11-03T22:47:35.232Z,13.73
2018-11-03T22:50:04.074Z,13.80
2018-11-03T22:52:33.001Z,15.57
2018-11-03T22:55:01.793Z,14.00
2018-11-03T22:57:30.641Z,14.20
2018-11-03T22:59:59.474Z,13.93
2018-11-03T23:02:28.339Z,14.13
2018-11-03T23:04:57.186Z,16.17
2018-11-03T23:07:26.031Z,14.60
2018-11-03T23:09:54.874Z,14.90
2018-11-03T23:12:23.742Z,15.97
2018-11-03T23:14:52.571Z,13.90
2018-11-03T23:17:21.422Z,15.13
2018-11-03T23:19:50.340Z,14.53
2018-11-03T23:22:19.179Z,14.40
2018-11-03T23:24:47.997Z,14.60
2018-11-03T23:27:16.843Z,14.80
2018-11-03T23:29:45.787Z,13.23
2018-11-03T23:32:14.537Z,15.20
2018-11-03T23:34:44.131Z,13.00
2018-11-03T23:37:12.987Z,13.30
2018-11-03T23:39:41.813Z,15.30
2018-11-03T23:42:11.234Z,14.00
2018-11-03T23:44:40.818Z,14.03
2018-11-03T23:47:09.679Z,13.57
2018-11-03T23:49:38.521Z,15.05
2018-11-03T23:52:07.353Z,13.70
2018-11-03T23:54:36.195Z,13.77
2018-11-03T23:57:05.040Z,14.43
2018-11-03T23:59:34.014Z,14.03
